createdAt,value
2017-05-21T00:00:19.605Z,11.29
2017-05-21T00:01:33.181Z,11.26
2017-05-21T00:02:47.095Z,11.24
2017-05-21T00:04:00.970Z,11.22
2017-05-21T00:05:14.607Z,11.19
2017-05-21T00:06:28.142Z,11.18
2017-05-21T00:07:41.878Z,11.15
2017-05-21T00:08:55.937Z,11.11
2017-05-21T00:10:09.737Z,11.07
2017-05-21T00:11:23.258Z,11.05
2017-05-21T00:12:36.879Z,11.06
2017-05-21T00:13:50.748Z,11.04
2017-05-21T00:15:04.401Z,11.03
2017-05-21T00:16:18.243Z,11.02
2017-05-21T00:17:31.822Z,11.02
2017-05-21T00:18:45.315Z,10.98
2017-05-21T00:19:58.881Z,10.97
2017-05-21T00:21:12.403Z,10.95
2017-05-21T00:22:26.251Z,10.93
2017-05-21T00:23:39.799Z,10.9
2017-05-21T00:24:53.435Z,10.87
2017-05-21T00:26:07.007Z,10.83
2017-05-21T00:27:20.538Z,10.81
2017-05-21T00:28:34.379Z,10.8
2017-05-21T00:29:47.919Z,10.82
2017-05-21T00:31:01.558Z,10.85
2017-05-21T00:32:15.133Z,10.88
2017-05-21T00:33:28.720Z,10.91
2017-05-21T00:34:42.908Z,10.93
2017-05-21T00:35:56.558Z,10.93
2017-05-21T00:37:10.088Z,10.91
2017-05-21T00:38:23.941Z,10.91
2017-05-21T00:39:37.536Z,10.89
2017-05-21T00:40:51.430Z,10.88
2017-05-21T00:42:05.227Z,10.86
2017-05-21T00:43:18.805Z,10.83
2017-05-21T00:44:32.359Z,10.81
2017-05-21T00:45:45.896Z,10.78
2017-05-21T00:46:59.776Z,10.77
2017-05-21T00:48:13.312Z,10.77
2017-05-21T00:49:26.893Z,10.78
2017-05-21T00:50:40.487Z,10.79
2017-05-21T00:51:54.025Z,10.8
2017-05-21T00:53:07.855Z,10.8
2017-05-21T00:54:21.394Z,10.8
2017-05-21T00:55:34.935Z,10.78
2017-05-21T00:56:48.491Z,10.76
2017-05-21T00:58:03.232Z,10.71
2017-05-21T00:59:17.100Z,10.66
2017-05-21T01:00:30.997Z,10.64
2017-05-21T01:01:44.552Z,10.6
2017-05-21T01:02:58.165Z,10.58
2017-05-21T01:04:11.796Z,10.59
2017-05-21T01:05:25.627Z,10.57
2017-05-21T01:06:39.246Z,10.54
2017-05-21T01:07:53.149Z,10.53
2017-05-21T01:09:06.706Z,10.54
2017-05-21T01:10:20.272Z,10.52
2017-05-21T01:11:34.215Z,10.5
2017-05-21T01:12:47.887Z,10.49
2017-05-21T01:14:01.720Z,10.49
2017-05-21T01:15:15.325Z,10.51
2017-05-21T01:16:28.868Z,10.54
2017-05-21T01:17:42.713Z,10.57
2017-05-21T01:18:56.358Z,10.58
2017-05-21T01:20:09.976Z,10.59
2017-05-21T01:21:23.470Z,10.58
2017-05-21T01:22:37.024Z,10.57
2017-05-21T01:23:50.932Z,10.58
2017-05-21T01:25:05.688Z,10.57
2017-05-21T01:26:19.218Z,10.56
2017-05-21T01:27:32.714Z,10.55
2017-05-21T01:28:46.383Z,10.52
2017-05-21T01:30:00.241Z,10.51
2017-05-21T01:31:13.889Z,10.49
2017-05-21T01:32:27.424Z,10.48
2017-05-21T01:33:40.962Z,10.47
2017-05-21T01:34:54.560Z,10.45
2017-05-21T01:36:08.386Z,10.43
2017-05-21T01:37:21.930Z,10.42
2017-05-21T01:38:35.722Z,10.39
2017-05-21T01:39:49.300Z,10.38
2017-05-21T01:41:02.792Z,10.35
2017-05-21T01:42:16.608Z,10.36
2017-05-21T01:43:30.146Z,10.35
2017-05-21T01:44:43.972Z,10.34
2017-05-21T01:45:57.540Z,10.33
2017-05-21T01:47:11.105Z,10.31
2017-05-21T01:48:25.281Z,10.29
2017-05-21T01:49:38.860Z,10.27
2017-05-21T01:50:52.815Z,10.24
2017-05-21T01:52:06.413Z,10.2
2017-05-21T01:53:19.996Z,10.14
2017-05-21T01:54:34.213Z,10.1
2017-05-21T01:55:47.846Z,10.05
2017-05-21T01:57:01.409Z,10.04
2017-05-21T01:58:14.923Z,10.02
2017-05-21T01:59:28.470Z,10
2017-05-21T02:00:42.390Z,9.98
2017-05-21T02:01:55.939Z,9.97
2017-05-21T02:03:09.510Z,9.96
2017-05-21T02:04:23.104Z,9.96
2017-05-21T02:05:37.124Z,9.97
2017-05-21T02:06:51.016Z,9.98
2017-05-21T02:08:04.892Z,9.98
2017-05-21T02:09:18.472Z,9.97
2017-05-21T02:10:32.037Z,9.94
2017-05-21T02:11:45.583Z,9.95
2017-05-21T02:12:59.547Z,9.92
2017-05-21T02:14:13.209Z,9.9
2017-05-21T02:15:26.745Z,9.88
2017-05-21T02:16:40.317Z,9.86
2017-05-21T02:17:53.908Z,9.85
2017-05-21T02:19:07.868Z,9.84
2017-05-21T02:20:21.422Z,9.82
2017-05-21T02:21:34.951Z,9.83
2017-05-21T02:22:48.460Z,9.82
2017-05-21T02:24:01.979Z,9.81
2017-05-21T02:25:15.861Z,9.82
2017-05-21T02:26:29.527Z,9.81
2017-05-21T02:27:43.150Z,9.82
2017-05-21T02:28:56.681Z,9.82
2017-05-21T02:30:10.414Z,9.81
2017-05-21T02:31:24.283Z,9.8
2017-05-21T02:32:37.790Z,9.78
2017-05-21T02:33:51.443Z,9.77
2017-05-21T02:35:05.028Z,9.76
2017-05-21T02:36:18.560Z,9.73
2017-05-21T02:37:32.429Z,9.71
2017-05-21T02:38:45.954Z,9.69
2017-05-21T02:39:59.554Z,9.68
2017-05-21T02:41:13.171Z,9.68
2017-05-21T02:42:26.829Z,9.68
2017-05-21T02:43:40.631Z,9.69
2017-05-21T02:44:54.153Z,9.69
2017-05-21T02:46:07.754Z,9.7
2017-05-21T02:47:21.282Z,9.71
2017-05-21T02:48:34.821Z,9.72
2017-05-21T02:49:48.686Z,9.73
2017-05-21T02:51:02.267Z,9.72
2017-05-21T02:52:15.814Z,9.72
2017-05-21T02:53:29.324Z,9.71
2017-05-21T02:54:42.864Z,9.68
2017-05-21T02:55:56.770Z,9.66
2017-05-21T02:57:10.425Z,9.63
2017-05-21T02:58:23.938Z,9.63
2017-05-21T02:59:37.468Z,9.63
2017-05-21T03:00:51.014Z,9.65
2017-05-21T03:02:04.935Z,9.71
2017-05-21T03:03:18.752Z,9.79
2017-05-21T03:04:32.287Z,9.84
2017-05-21T03:05:45.862Z,9.92
2017-05-21T03:06:59.404Z,9.98
2017-05-21T03:08:13.359Z,10.03
2017-05-21T03:09:26.996Z,10.09
2017-05-21T03:10:40.495Z,10.13
2017-05-21T03:11:54.137Z,10.18
2017-05-21T03:13:07.723Z,10.2
2017-05-21T03:14:22.019Z,10.23
2017-05-21T03:15:35.575Z,10.26
2017-05-21T03:16:49.135Z,10.31
2017-05-21T03:18:02.785Z,10.35
2017-05-21T03:19:16.676Z,10.39
2017-05-21T03:20:30.510Z,10.43
2017-05-21T03:21:44.107Z,10.44
2017-05-21T03:22:57.612Z,10.46
2017-05-21T03:24:11.225Z,10.46
2017-05-21T03:25:25.174Z,10.49
2017-05-21T03:26:39.064Z,10.5
2017-05-21T03:27:52.564Z,10.52
2017-05-21T03:29:06.143Z,10.53
2017-05-21T03:30:19.657Z,10.54
2017-05-21T03:31:33.698Z,10.57
2017-05-21T03:32:47.709Z,10.61
2017-05-21T03:34:01.235Z,10.65
2017-05-21T03:35:14.816Z,10.69
2017-05-21T03:36:28.327Z,10.73
2017-05-21T03:37:41.941Z,10.79
2017-05-21T03:38:55.803Z,10.81
2017-05-21T03:40:09.649Z,10.81
2017-05-21T03:41:23.138Z,10.83
2017-05-21T03:42:36.707Z,10.82
2017-05-21T03:43:50.222Z,10.83
2017-05-21T03:45:04.437Z,10.86
2017-05-21T03:46:18.005Z,10.86
2017-05-21T03:47:31.594Z,10.86
2017-05-21T03:48:45.264Z,10.86
2017-05-21T03:49:59.258Z,10.83
2017-05-21T03:51:13.178Z,10.83
2017-05-21T03:52:26.744Z,10.85
2017-05-21T03:53:40.305Z,10.89
2017-05-21T03:54:53.939Z,11.04
2017-05-21T03:56:07.681Z,11.6
2017-05-21T03:57:21.545Z,12.36
2017-05-21T03:58:35.108Z,13.07
2017-05-21T03:59:48.661Z,13.67
2017-05-21T04:01:02.324Z,14.17
2017-05-21T04:02:15.837Z,14.49
2017-05-21T04:03:29.700Z,14.78
2017-05-21T04:04:43.254Z,15.31
2017-05-21T04:05:56.780Z,15.82
2017-05-21T04:07:10.380Z,16.23
2017-05-21T04:08:23.960Z,16.7
2017-05-21T04:09:37.832Z,17.24
2017-05-21T04:10:51.384Z,17.74
2017-05-21T04:12:05.259Z,18.18
2017-05-21T04:13:18.841Z,18.68
2017-05-21T04:14:32.480Z,19.11
2017-05-21T04:15:46.294Z,19.7
2017-05-21T04:17:00.251Z,20.32
2017-05-21T04:18:13.799Z,20.92
2017-05-21T04:19:27.420Z,21.49
2017-05-21T04:20:41.065Z,22.02
2017-05-21T04:21:55.546Z,21.9
2017-05-21T04:23:09.297Z,21.55
2017-05-21T04:24:22.875Z,21.6
2017-05-21T04:25:36.561Z,22.25
2017-05-21T04:26:50.145Z,22.92
2017-05-21T04:28:04.089Z,23.45
2017-05-21T04:29:17.723Z,23.85
2017-05-21T04:30:31.316Z,24.27
2017-05-21T04:31:44.930Z,24.61
2017-05-21T04:32:58.578Z,25.01
2017-05-21T04:34:12.421Z,25.43
2017-05-21T04:35:25.985Z,25.83
2017-05-21T04:36:39.724Z,26.17
2017-05-21T04:37:53.413Z,26.45
2017-05-21T04:39:07.015Z,26.67
2017-05-21T04:40:20.928Z,26.87
2017-05-21T04:41:34.512Z,27.15
2017-05-21T04:42:48.138Z,27.45
2017-05-21T04:44:01.846Z,27.78
2017-05-21T04:45:15.409Z,28.15
2017-05-21T04:46:29.347Z,28.59
2017-05-21T04:47:42.939Z,29.07
2017-05-21T04:48:56.586Z,29.5
2017-05-21T04:50:10.168Z,29.86
2017-05-21T04:51:23.861Z,30.18
2017-05-21T04:52:37.748Z,30.47
2017-05-21T04:53:51.933Z,30.74
2017-05-21T04:55:05.515Z,31.02
2017-05-21T04:56:19.072Z,31.34
2017-05-21T04:57:32.707Z,31.63
2017-05-21T04:58:46.735Z,31.88
2017-05-21T05:00:00.375Z,32.11
2017-05-21T05:01:14.091Z,32.27
2017-05-21T05:02:27.719Z,32.44
2017-05-21T05:03:41.281Z,32.7
2017-05-21T05:04:55.238Z,32.93
2017-05-21T05:06:08.993Z,33.17
2017-05-21T05:07:22.738Z,33.45
2017-05-21T05:08:36.286Z,33.67
2017-05-21T05:09:50.034Z,33.93
2017-05-21T05:11:03.939Z,34.2
2017-05-21T05:12:17.489Z,34.39
2017-05-21T05:13:31.061Z,34.54
2017-05-21T05:14:44.621Z,34.74
2017-05-21T05:15:58.344Z,34.89
2017-05-21T05:17:12.266Z,35.05
2017-05-21T05:18:25.810Z,35.23
2017-05-21T05:19:39.411Z,35.51
2017-05-21T05:20:53.018Z,35.71
2017-05-21T05:22:06.592Z,35.8
2017-05-21T05:23:20.551Z,35.8
2017-05-21T05:24:34.093Z,34.43
2017-05-21T05:25:47.646Z,31.73
2017-05-21T05:27:01.311Z,29.43
2017-05-21T05:28:17.888Z,27.75
2017-05-21T05:29:31.795Z,26.42
2017-05-21T05:30:45.337Z,25.42
2017-05-21T05:31:59.602Z,24.59
2017-05-21T05:33:13.171Z,23.9
2017-05-21T05:34:26.737Z,23.33
2017-05-21T05:35:40.611Z,22.79
2017-05-21T05:36:54.225Z,22.3
2017-05-21T05:38:07.764Z,21.78
2017-05-21T05:39:21.324Z,21.33
2017-05-21T05:40:34.842Z,20.95
2017-05-21T05:41:48.701Z,20.61
2017-05-21T05:43:02.377Z,20.3
2017-05-21T05:44:15.946Z,19.97
2017-05-21T05:45:29.498Z,19.71
2017-05-21T05:46:43.416Z,19.51
2017-05-21T05:47:57.374Z,19.33
2017-05-21T05:49:11.177Z,19.13
2017-05-21T05:50:25.096Z,18.93
2017-05-21T05:51:38.625Z,18.74
2017-05-21T05:52:52.578Z,18.56
2017-05-21T05:54:06.466Z,18.4
2017-05-21T05:55:20.083Z,18.25
2017-05-21T05:56:33.744Z,18.12
2017-05-21T05:57:47.601Z,18.03
2017-05-21T05:59:01.411Z,17.93
2017-05-21T06:00:15.247Z,17.84
2017-05-21T06:01:28.825Z,17.79
2017-05-21T06:02:42.377Z,17.76
2017-05-21T06:03:56.061Z,17.74
2017-05-21T06:05:09.608Z,17.7
2017-05-21T06:06:23.462Z,17.68
2017-05-21T06:07:37.020Z,17.62
2017-05-21T06:08:50.633Z,17.59
2017-05-21T06:10:04.376Z,17.55
2017-05-21T06:11:18.079Z,17.51
2017-05-21T06:12:31.950Z,17.49
2017-05-21T06:13:45.562Z,17.47
2017-05-21T06:14:59.147Z,17.45
2017-05-21T06:16:12.731Z,17.44
2017-05-21T06:17:26.513Z,17.4
2017-05-21T06:18:40.424Z,17.37
2017-05-21T06:19:53.990Z,17.33
2017-05-21T06:21:07.622Z,17.28
2017-05-21T06:22:21.186Z,17.23
2017-05-21T06:23:34.898Z,17.16
2017-05-21T06:24:49.072Z,17.1
2017-05-21T06:26:02.684Z,17.07
2017-05-21T06:27:16.218Z,17.04
2017-05-21T06:28:29.754Z,17.02
2017-05-21T06:29:43.333Z,17
2017-05-21T06:30:57.343Z,16.95
2017-05-21T06:32:10.942Z,16.92
2017-05-21T06:33:24.508Z,16.9
2017-05-21T06:34:38.373Z,16.87
2017-05-21T06:35:51.975Z,16.87
2017-05-21T06:37:05.972Z,16.85
2017-05-21T06:38:19.530Z,16.83
2017-05-21T06:39:33.728Z,16.83
2017-05-21T06:40:47.250Z,16.85
2017-05-21T06:42:00.822Z,16.87
2017-05-21T06:43:14.676Z,16.88
2017-05-21T06:44:28.228Z,16.9
2017-05-21T06:45:41.813Z,16.9
2017-05-21T06:46:55.681Z,16.88
2017-05-21T06:48:09.299Z,16.85
2017-05-21T06:49:23.183Z,16.81
2017-05-21T06:50:36.796Z,16.79
2017-05-21T06:51:50.491Z,16.8
2017-05-21T06:53:04.168Z,16.8
2017-05-21T06:54:18.203Z,16.82
2017-05-21T06:55:32.065Z,16.83
2017-05-21T06:56:45.722Z,16.83
2017-05-21T06:57:59.697Z,16.85
2017-05-21T06:59:13.316Z,16.87
2017-05-21T07:00:26.927Z,16.87
2017-05-21T07:01:40.926Z,16.88
2017-05-21T07:02:54.574Z,16.89
2017-05-21T07:04:08.201Z,16.9
2017-05-21T07:05:21.761Z,16.9
2017-05-21T07:06:35.421Z,16.92
2017-05-21T07:07:49.391Z,16.95
2017-05-21T07:09:02.986Z,16.94
2017-05-21T07:10:16.578Z,16.96
2017-05-21T07:11:30.138Z,16.95
2017-05-21T07:12:43.758Z,16.97
2017-05-21T07:13:57.694Z,16.99
2017-05-21T07:15:11.336Z,17.01
2017-05-21T07:16:24.885Z,17.01
2017-05-21T07:17:41.410Z,17.02
2017-05-21T07:19:09.540Z,17.04
2017-05-21T07:20:25.143Z,17.08
2017-05-21T07:21:38.710Z,17.11
2017-05-21T07:22:52.315Z,17.14
2017-05-21T07:24:05.933Z,17.19
2017-05-21T07:25:19.513Z,17.25
2017-05-21T07:26:33.352Z,17.32
2017-05-21T07:27:47.424Z,17.36
2017-05-21T07:29:01.815Z,17.41
2017-05-21T07:30:19.145Z,17.45
2017-05-21T07:31:41.463Z,17.51
2017-05-21T07:33:05.616Z,17.57
2017-05-21T07:34:28.193Z,17.67
2017-05-21T07:35:42.009Z,17.71
2017-05-21T07:37:05.249Z,17.73
2017-05-21T07:38:19.166Z,17.77
2017-05-21T07:39:32.817Z,17.8
2017-05-21T07:40:46.340Z,17.86
2017-05-21T07:41:59.955Z,17.91
2017-05-21T07:43:13.566Z,17.96
2017-05-21T07:44:27.641Z,18.02
2017-05-21T07:45:41.292Z,18.05
2017-05-21T07:46:54.904Z,18.09
2017-05-21T07:48:08.605Z,18.12
2017-05-21T07:49:22.201Z,18.15
2017-05-21T07:50:36.124Z,18.19
2017-05-21T07:51:49.661Z,18.23
2017-05-21T07:53:03.223Z,18.25
2017-05-21T07:54:16.782Z,18.28
2017-05-21T07:55:30.422Z,18.32
2017-05-21T07:56:44.308Z,18.35
2017-05-21T07:57:57.911Z,18.39
2017-05-21T07:59:11.686Z,18.44
2017-05-21T08:00:25.293Z,18.5
2017-05-21T08:01:39.220Z,18.57
2017-05-21T08:02:53.880Z,18.61
2017-05-21T08:04:08.505Z,18.64
2017-05-21T08:05:22.562Z,18.65
2017-05-21T08:06:37.163Z,18.61
2017-05-21T08:07:55.259Z,18.6
2017-05-21T08:09:09.613Z,18.59
2017-05-21T08:10:23.234Z,18.61
2017-05-21T08:11:37.344Z,18.64
2017-05-21T08:12:51.097Z,18.68
2017-05-21T08:14:05.377Z,18.73
2017-05-21T08:15:21.393Z,18.76
2017-05-21T08:16:43.270Z,18.8
2017-05-21T08:18:05.003Z,18.83
2017-05-21T08:19:22.987Z,18.89
2017-05-21T08:20:40.710Z,18.94
2017-05-21T08:21:54.828Z,18.99
2017-05-21T08:23:08.775Z,19.01
2017-05-21T08:24:22.466Z,19.02
2017-05-21T08:25:36.412Z,19.03
2017-05-21T08:26:51.186Z,19.06
2017-05-21T08:28:07.239Z,19.11
2017-05-21T08:29:22.872Z,19.15
2017-05-21T08:30:42.799Z,19.2
2017-05-21T08:31:58.487Z,19.24
2017-05-21T08:33:27.241Z,19.28
2017-05-21T08:34:41.198Z,19.32
2017-05-21T08:35:54.839Z,19.36
2017-05-21T08:37:08.813Z,19.41
2017-05-21T08:38:22.709Z,19.47
2017-05-21T08:39:36.751Z,19.52
2017-05-21T08:40:50.347Z,19.56
2017-05-21T08:42:04.226Z,19.59
2017-05-21T08:43:18.133Z,19.62
2017-05-21T08:44:32.231Z,19.64
2017-05-21T08:45:46.718Z,19.67
2017-05-21T08:47:00.917Z,19.7
2017-05-21T08:48:15.879Z,19.73
2017-05-21T08:49:29.607Z,19.77
2017-05-21T08:50:44.376Z,19.8
2017-05-21T08:51:58.286Z,19.81
2017-05-21T08:53:11.962Z,19.85
2017-05-21T08:54:25.677Z,19.88
2017-05-21T08:55:39.802Z,19.9
2017-05-21T08:56:53.482Z,19.92
2017-05-21T08:58:07.383Z,19.96
2017-05-21T08:59:21.488Z,20
2017-05-21T09:00:35.460Z,20.04
2017-05-21T09:01:49.062Z,20.06
2017-05-21T09:03:02.798Z,20.1
2017-05-21T09:04:16.720Z,20.12
2017-05-21T09:05:30.540Z,20.16
2017-05-21T09:06:44.166Z,20.18
2017-05-21T09:07:58.158Z,20.2
2017-05-21T09:09:11.751Z,20.2
2017-05-21T09:10:25.636Z,20.25
2017-05-21T09:11:39.472Z,20.28
2017-05-21T09:12:53.200Z,20.28
2017-05-21T09:14:06.779Z,20.28
2017-05-21T09:15:20.426Z,20.28
2017-05-21T09:16:34.332Z,20.27
2017-05-21T09:17:48.311Z,20.26
2017-05-21T09:19:02.137Z,20.29
2017-05-21T09:20:15.675Z,20.31
2017-05-21T09:21:29.237Z,20.35
2017-05-21T09:22:43.119Z,20.39
2017-05-21T09:23:56.717Z,20.4
2017-05-21T09:25:10.468Z,20.42
2017-05-21T09:26:24.093Z,20.43
2017-05-21T09:27:37.655Z,20.44
2017-05-21T09:28:51.551Z,20.47
2017-05-21T09:30:05.210Z,20.51
2017-05-21T09:31:18.893Z,20.51
2017-05-21T09:32:32.441Z,20.52
2017-05-21T09:33:46.009Z,20.55
2017-05-21T09:34:59.888Z,20.56
2017-05-21T09:36:13.497Z,20.61
2017-05-21T09:37:27.131Z,20.64
2017-05-21T09:38:40.646Z,20.66
2017-05-21T09:39:54.185Z,20.69
2017-05-21T09:41:08.494Z,20.72
2017-05-21T09:42:22.376Z,20.76
2017-05-21T09:43:35.918Z,20.8
2017-05-21T09:44:49.688Z,20.81
2017-05-21T09:46:03.287Z,20.83
2017-05-21T09:47:17.251Z,20.87
2017-05-21T09:48:30.838Z,20.89
2017-05-21T09:49:44.457Z,20.9
2017-05-21T09:50:58.042Z,20.91
2017-05-21T09:52:11.695Z,20.92
2017-05-21T09:53:25.602Z,20.94
2017-05-21T09:54:39.558Z,20.97
2017-05-21T09:55:53.131Z,20.99
2017-05-21T09:57:07.098Z,21.03
2017-05-21T09:58:20.805Z,21.07
2017-05-21T09:59:34.650Z,21.07
2017-05-21T10:00:48.661Z,21.09
2017-05-21T10:02:02.224Z,21.11
2017-05-21T10:03:15.880Z,21.08
2017-05-21T10:04:29.448Z,21.04
2017-05-21T10:05:43.358Z,21.02
2017-05-21T10:06:57.000Z,21.03
2017-05-21T10:08:10.562Z,21.06
2017-05-21T10:09:24.333Z,21.09
2017-05-21T10:10:38.059Z,21.12
2017-05-21T10:11:51.969Z,21.16
2017-05-21T10:13:05.642Z,21.18
2017-05-21T10:14:19.202Z,21.19
2017-05-21T10:15:32.882Z,21.18
2017-05-21T10:16:46.420Z,21.17
2017-05-21T10:18:00.430Z,21.16
2017-05-21T10:19:14.589Z,21.12
2017-05-21T10:20:28.232Z,21.12
2017-05-21T10:21:43.806Z,21.12
2017-05-21T10:22:57.370Z,21.14
2017-05-21T10:24:11.306Z,21.18
2017-05-21T10:25:24.932Z,21.18
2017-05-21T10:26:38.641Z,21.17
2017-05-21T10:27:52.366Z,21.15
2017-05-21T10:29:06.079Z,21.13
2017-05-21T10:30:20.017Z,21.11
2017-05-21T10:31:33.835Z,21.07
2017-05-21T10:32:47.525Z,21.02
2017-05-21T10:34:01.176Z,20.98
2017-05-21T10:35:14.943Z,20.95
2017-05-21T10:36:29.143Z,20.97
2017-05-21T10:37:43.041Z,20.97
2017-05-21T10:38:56.645Z,21
2017-05-21T10:40:10.680Z,21.06
2017-05-21T10:41:24.337Z,21.13
2017-05-21T10:42:38.273Z,21.17
2017-05-21T10:43:52.549Z,21.23
2017-05-21T10:45:06.651Z,21.32
2017-05-21T10:46:20.348Z,21.39
2017-05-21T10:47:34.458Z,21.47
2017-05-21T10:48:48.572Z,21.52
2017-05-21T10:50:02.345Z,21.56
2017-05-21T10:51:16.264Z,21.63
2017-05-21T10:52:29.835Z,21.68
2017-05-21T10:53:43.547Z,21.74
2017-05-21T10:54:57.497Z,21.79
2017-05-21T10:56:11.173Z,21.82
2017-05-21T10:57:24.757Z,21.85
2017-05-21T10:58:39.350Z,21.92
2017-05-21T10:59:53.023Z,21.98
2017-05-21T11:01:07.213Z,22.04
2017-05-21T11:02:20.915Z,22.09
2017-05-21T11:03:34.583Z,22.11
2017-05-21T11:04:48.524Z,22.09
2017-05-21T11:06:02.175Z,22.04
2017-05-21T11:07:16.342Z,22.07
2017-05-21T11:08:30.060Z,22.07
2017-05-21T11:09:44.281Z,22.1
2017-05-21T11:10:58.014Z,22.14
2017-05-21T11:12:12.006Z,22.2
2017-05-21T11:13:26.276Z,22.25
2017-05-21T11:14:39.925Z,22.29
2017-05-21T11:15:53.535Z,22.29
2017-05-21T11:17:08.449Z,22.21
2017-05-21T11:18:22.129Z,22.17
2017-05-21T11:19:36.029Z,22.21
2017-05-21T11:20:49.705Z,22.26
2017-05-21T11:22:03.422Z,22.34
2017-05-21T11:23:17.344Z,22.4
2017-05-21T11:24:30.916Z,22.47
2017-05-21T11:25:44.784Z,22.54
2017-05-21T11:26:58.434Z,22.65
2017-05-21T11:28:12.244Z,22.71
2017-05-21T11:29:25.946Z,22.76
2017-05-21T11:30:39.706Z,22.8
2017-05-21T11:31:53.722Z,22.82
2017-05-21T11:33:07.617Z,22.82
2017-05-21T11:34:21.312Z,22.81
2017-05-21T11:35:34.983Z,22.78
2017-05-21T11:36:48.756Z,22.71
2017-05-21T11:38:02.664Z,22.7
2017-05-21T11:39:16.594Z,22.7
2017-05-21T11:40:30.207Z,22.69
2017-05-21T11:41:43.858Z,22.65
2017-05-21T11:42:57.522Z,22.54
2017-05-21T11:44:11.753Z,22.46
2017-05-21T11:45:25.415Z,22.47
2017-05-21T11:46:39.081Z,22.49
2017-05-21T11:47:52.629Z,22.52
2017-05-21T11:49:06.357Z,22.56
2017-05-21T11:50:20.287Z,22.6
2017-05-21T11:51:35.144Z,22.63
2017-05-21T11:52:48.939Z,22.73
2017-05-21T11:54:02.647Z,22.79
2017-05-21T11:55:16.418Z,22.86
2017-05-21T11:56:30.449Z,22.95
2017-05-21T11:57:44.140Z,23.01
2017-05-21T11:58:57.801Z,23.06
2017-05-21T12:00:11.519Z,23.08
2017-05-21T12:01:25.166Z,23.12
2017-05-21T12:02:39.241Z,23.22
2017-05-21T12:03:52.853Z,23.34
2017-05-21T12:05:06.744Z,23.45
2017-05-21T12:06:20.512Z,23.55
2017-05-21T12:07:34.185Z,23.6
2017-05-21T12:08:48.149Z,23.66
2017-05-21T12:10:01.841Z,23.72
2017-05-21T12:11:15.515Z,23.82
2017-05-21T12:12:29.162Z,23.88
2017-05-21T12:13:43.047Z,23.91
2017-05-21T12:14:57.121Z,24.02
2017-05-21T12:16:10.781Z,24.07
2017-05-21T12:17:24.425Z,24.09
2017-05-21T12:18:38.237Z,24.13
2017-05-21T12:19:52.179Z,24.1
2017-05-21T12:21:06.148Z,24.07
2017-05-21T12:22:19.862Z,24.07
2017-05-21T12:23:33.602Z,24.04
2017-05-21T12:24:47.320Z,24.01
2017-05-21T12:26:01.324Z,23.97
2017-05-21T12:27:15.313Z,23.94
2017-05-21T12:28:29.331Z,23.92
2017-05-21T12:29:42.910Z,23.89
2017-05-21T12:30:56.998Z,23.8
2017-05-21T12:32:11.860Z,23.7
2017-05-21T12:33:25.888Z,23.58
2017-05-21T12:34:39.521Z,23.48
2017-05-21T12:35:53.213Z,23.43
2017-05-21T12:37:06.984Z,23.39
2017-05-21T12:38:20.578Z,23.38
2017-05-21T12:39:34.534Z,23.37
2017-05-21T12:40:48.229Z,23.37
2017-05-21T12:42:01.833Z,23.35
2017-05-21T12:43:15.627Z,23.36
2017-05-21T12:44:29.231Z,23.32
2017-05-21T12:45:43.099Z,23.28
2017-05-21T12:46:56.770Z,23.28
2017-05-21T12:48:10.367Z,23.3
2017-05-21T12:49:23.996Z,23.34
2017-05-21T12:50:37.615Z,23.43
2017-05-21T12:51:51.776Z,23.51
2017-05-21T12:53:05.379Z,23.61
2017-05-21T12:54:18.970Z,23.69
2017-05-21T12:55:32.612Z,23.74
2017-05-21T12:56:46.274Z,23.82
2017-05-21T12:58:00.138Z,23.98
2017-05-21T12:59:13.702Z,24.14
2017-05-21T13:00:27.432Z,24.32
2017-05-21T13:01:41.004Z,24.49
2017-05-21T13:02:54.779Z,24.62
2017-05-21T13:04:09.228Z,24.74
2017-05-21T13:05:22.781Z,24.82
2017-05-21T13:06:36.340Z,24.88
2017-05-21T13:07:50.029Z,24.94
2017-05-21T13:09:03.664Z,24.97
2017-05-21T13:10:17.640Z,24.94
2017-05-21T13:11:31.236Z,24.86
2017-05-21T13:12:44.980Z,24.79
2017-05-21T13:13:58.616Z,24.74
2017-05-21T13:15:12.222Z,24.71
2017-05-21T13:16:26.109Z,24.69
2017-05-21T13:17:39.795Z,24.67
2017-05-21T13:18:53.515Z,24.7
2017-05-21T13:20:07.050Z,24.68
2017-05-21T13:21:20.672Z,24.61
2017-05-21T13:22:34.758Z,24.53
2017-05-21T13:23:48.393Z,24.49
2017-05-21T13:25:02.042Z,24.41
2017-05-21T13:26:16.019Z,24.36
2017-05-21T13:27:29.680Z,24.35
2017-05-21T13:28:43.670Z,24.36
2017-05-21T13:29:57.672Z,24.4
2017-05-21T13:31:11.358Z,24.46
2017-05-21T13:32:24.926Z,24.53
2017-05-21T13:33:38.572Z,24.57
2017-05-21T13:34:52.802Z,24.63
2017-05-21T13:36:06.354Z,24.72
2017-05-21T13:37:20.281Z,24.79
2017-05-21T13:38:33.853Z,24.86
2017-05-21T13:39:47.715Z,24.95
2017-05-21T13:41:01.917Z,25.04
2017-05-21T13:42:15.547Z,25.14
2017-05-21T13:43:29.464Z,25.21
2017-05-21T13:44:43.230Z,25.21
2017-05-21T13:45:57.082Z,25.18
2017-05-21T13:47:11.093Z,25.12
2017-05-21T13:48:25.511Z,25.03
2017-05-21T13:49:39.156Z,24.96
2017-05-21T13:50:52.814Z,24.89
2017-05-21T13:52:06.429Z,24.75
2017-05-21T13:53:20.327Z,24.61
2017-05-21T13:54:34.104Z,24.51
2017-05-21T13:55:47.810Z,24.44
2017-05-21T13:57:01.381Z,24.4
2017-05-21T13:58:14.926Z,24.35
2017-05-21T13:59:28.837Z,24.31
2017-05-21T14:00:42.499Z,24.2
2017-05-21T14:01:56.082Z,24.11
2017-05-21T14:03:09.713Z,24.04
2017-05-21T14:04:23.309Z,24
2017-05-21T14:05:37.415Z,23.97
2017-05-21T14:06:51.042Z,23.97
2017-05-21T14:08:04.654Z,23.97
2017-05-21T14:09:18.267Z,23.98
2017-05-21T14:10:31.911Z,24.01
2017-05-21T14:11:46.618Z,24
2017-05-21T14:13:00.592Z,23.97
2017-05-21T14:14:14.168Z,24
2017-05-21T14:15:27.771Z,24.02
2017-05-21T14:16:41.756Z,24.04
2017-05-21T14:17:55.686Z,24.04
2017-05-21T14:19:09.245Z,24.06
2017-05-21T14:20:22.979Z,24.08
2017-05-21T14:21:36.522Z,24.12
2017-05-21T14:22:50.115Z,24.16
2017-05-21T14:24:03.997Z,24.2
2017-05-21T14:25:17.581Z,24.28
2017-05-21T14:26:31.271Z,24.33
2017-05-21T14:27:45.206Z,24.41
2017-05-21T14:28:58.797Z,24.51
2017-05-21T14:30:12.746Z,24.66
2017-05-21T14:31:26.307Z,24.79
2017-05-21T14:32:40.019Z,24.89
2017-05-21T14:33:53.902Z,24.98
2017-05-21T14:35:07.506Z,25.06
2017-05-21T14:36:21.488Z,25.18
2017-05-21T14:37:35.095Z,25.26
2017-05-21T14:38:49.320Z,25.32
2017-05-21T14:40:02.922Z,25.32
2017-05-21T14:41:16.581Z,25.29
2017-05-21T14:42:30.869Z,25.27
2017-05-21T14:43:44.639Z,25.24
2017-05-21T14:44:58.241Z,25.19
2017-05-21T14:46:12.010Z,25.19
2017-05-21T14:47:25.984Z,25.18
2017-05-21T14:48:39.867Z,25.09
2017-05-21T14:49:53.542Z,24.96
2017-05-21T14:51:07.098Z,24.83
2017-05-21T14:52:20.704Z,24.71
2017-05-21T14:53:34.517Z,24.57
2017-05-21T14:54:48.420Z,24.45
2017-05-21T14:56:02.015Z,24.38
2017-05-21T14:57:15.601Z,24.33
2017-05-21T14:58:29.283Z,24.25
2017-05-21T14:59:43.097Z,24.2
2017-05-21T15:00:57.127Z,24.16
2017-05-21T15:02:10.800Z,24.15
2017-05-21T15:03:24.426Z,24.14
2017-05-21T15:04:38.051Z,24.14
2017-05-21T15:05:51.846Z,24.17
2017-05-21T15:07:06.460Z,24.19
2017-05-21T15:08:20.427Z,24.25
2017-05-21T15:09:34.899Z,24.32
2017-05-21T15:10:48.422Z,24.39
2017-05-21T15:12:01.967Z,24.43
2017-05-21T15:13:15.881Z,24.45
2017-05-21T15:14:29.496Z,24.49
2017-05-21T15:15:43.393Z,24.53
2017-05-21T15:16:56.959Z,24.57
2017-05-21T15:18:10.627Z,24.62
2017-05-21T15:19:24.532Z,24.64
2017-05-21T15:20:38.278Z,24.68
2017-05-21T15:21:52.758Z,24.62
2017-05-21T15:23:06.301Z,24.58
2017-05-21T15:24:19.936Z,24.53
2017-05-21T15:25:33.793Z,24.51
2017-05-21T15:26:47.493Z,24.51
2017-05-21T15:28:01.119Z,24.51
2017-05-21T15:29:14.798Z,24.49
2017-05-21T15:30:28.600Z,24.48
2017-05-21T15:31:42.637Z,24.47
2017-05-21T15:32:56.235Z,24.41
2017-05-21T15:34:10.115Z,24.38
2017-05-21T15:35:24.129Z,24.36
2017-05-21T15:36:41.386Z,24.33
2017-05-21T15:37:59.180Z,24.31
2017-05-21T15:39:17.156Z,24.35
2017-05-21T15:40:35.243Z,24.4
2017-05-21T15:41:51.832Z,24.45
2017-05-21T15:43:05.696Z,24.53
2017-05-21T15:44:19.338Z,24.61
2017-05-21T15:45:32.994Z,24.7
2017-05-21T15:46:46.634Z,24.78
2017-05-21T15:48:00.874Z,24.86
2017-05-21T15:49:14.769Z,24.95
2017-05-21T15:50:28.375Z,25.01
2017-05-21T15:51:42.138Z,25.08
2017-05-21T15:52:55.788Z,25.14
2017-05-21T15:54:09.388Z,25.18
2017-05-21T15:55:23.611Z,25.19
2017-05-21T15:56:37.318Z,25.19
2017-05-21T15:57:51.115Z,25.17